createdAt,value
2023-01-04T00:02:24.127Z,2.20
2023-01-04T00:04:50.919Z,3.53
2023-01-04T00:07:21.039Z,1.60
2023-01-04T00:09:47.790Z,2.10
2023-01-04T00:12:14.554Z,2.70
2023-01-04T00:14:41.316Z,7.33
2023-01-04T00:17:08.105Z,1.77
2023-01-04T00:19:34.821Z,3.23
2023-01-04T00:22:01.566Z,6.07
2023-01-04T00:24:28.334Z,1.80
2023-01-04T00:26:55.078Z,10.50
2023-01-04T00:29:22.212Z,3.60
2023-01-04T00:31:49.208Z,2.40
2023-01-04T00:34:17.314Z,4.60
2023-01-04T00:36:45.060Z,4.23
2023-01-04T00:39:15.378Z,9.73
2023-01-04T00:41:58.527Z,3.50
2023-01-04T00:44:26.172Z,5.63
2023-01-04T00:46:53.185Z,5.43
2023-01-04T00:49:20.073Z,3.10
2023-01-04T00:51:46.805Z,4.20
2023-01-04T00:54:15.298Z,2.50
2023-01-04T00:56:42.476Z,5.67
2023-01-04T00:59:11.933Z,7.97
2023-01-04T01:01:40.027Z,7.13
2023-01-04T01:04:07.346Z,9.73
2023-01-04T01:06:34.574Z,1.87
2023-01-04T01:09:01.736Z,4.30
2023-01-04T01:11:29.657Z,5.17
2023-01-04T01:13:57.793Z,2.63
2023-01-04T01:16:53.121Z,13.07
2023-01-04T01:19:13.893Z,2.20
2023-01-04T01:21:40.869Z,2.70
2023-01-04T01:24:07.856Z,8.57
2023-01-04T01:26:34.811Z,7.53
2023-01-04T01:29:01.607Z,3.57
2023-01-04T01:31:29.270Z,2.20
2023-01-04T01:33:57.035Z,5.23
2023-01-04T01:36:26.372Z,5.87
2023-01-04T01:41:32.938Z,3.13
2023-01-04T01:44:36.942Z,2.77
2023-01-04T01:47:03.752Z,1.50
2023-01-04T01:49:39.902Z,10.20
2023-01-04T01:52:11.826Z,3.70
2023-01-04T01:54:56.459Z,4.50
2023-01-04T01:57:27.049Z,6.17
2023-01-04T01:59:58.122Z,4.20
2023-01-04T02:02:25.072Z,3.80
2023-01-04T02:04:52.293Z,6.43
2023-01-04T02:07:23.231Z,4.30
2023-01-04T02:09:51.368Z,6.77
2023-01-04T02:12:18.542Z,1.40
2023-01-04T02:14:48.875Z,1.27
2023-01-04T02:17:40.294Z,1.17
2023-01-04T02:20:23.464Z,7.57
2023-01-04T02:23:09.906Z,1.60
2023-01-04T02:25:45.492Z,2.13
2023-01-04T02:28:38.247Z,4.40
2023-01-04T02:31:07.872Z,1.80
2023-01-04T02:33:51.466Z,5.70
2023-01-04T02:36:44.862Z,2.53
2023-01-04T02:39:37.195Z,1.47
2023-01-04T02:42:17.003Z,1.30
2023-01-04T02:45:04.909Z,3.00
2023-01-04T02:47:56.798Z,1.83
2023-01-04T02:50:31.496Z,3.07
2023-01-04T02:53:03.265Z,4.50
2023-01-04T02:55:40.079Z,1.30
2023-01-04T02:58:30.997Z,2.40
2023-01-04T03:01:19.462Z,1.47
2023-01-04T03:04:29.570Z,2.17
2023-01-04T03:07:08.951Z,1.50
2023-01-04T03:09:40.090Z,1.00
2023-01-04T03:12:39.098Z,1.57
2023-01-04T03:15:25.492Z,0.93
2023-01-04T03:17:59.531Z,0.80
2023-01-04T03:20:30.346Z,2.93
2023-01-04T03:23:23.971Z,3.70
2023-01-04T03:26:15.009Z,1.00
2023-01-04T03:29:03.112Z,0.80
2023-01-04T03:31:56.760Z,1.03
2023-01-04T03:34:42.325Z,0.97
2023-01-04T03:37:15.970Z,0.80
2023-01-04T03:40:28.690Z,1.60
2023-01-04T03:43:21.577Z,0.80
2023-01-04T03:46:18.228Z,0.90
2023-01-04T03:48:59.522Z,2.10
2023-01-04T03:51:31.308Z,0.90
2023-01-04T03:54:06.710Z,0.97
2023-01-04T03:56:37.751Z,0.80
2023-01-04T03:59:05.621Z,0.70
2023-01-04T04:01:32.538Z,1.87
2023-01-04T04:04:18.251Z,0.80
2023-01-04T04:07:03.520Z,1.67
2023-01-04T04:09:30.577Z,0.87
2023-01-04T04:11:57.926Z,0.97
2023-01-04T04:14:25.023Z,0.70
2023-01-04T04:16:52.166Z,1.27
2023-01-04T04:19:19.058Z,1.53
2023-01-04T04:21:45.795Z,0.90
2023-01-04T04:24:21.965Z,0.73
2023-01-04T04:26:49.002Z,2.40
2023-01-04T04:29:15.794Z,0.80
2023-01-04T04:31:42.739Z,0.80
2023-01-04T04:34:10.828Z,1.33
2023-01-04T04:36:38.033Z,6.87
2023-01-04T04:39:04.961Z,3.13
2023-01-04T04:41:41.736Z,1.53
2023-01-04T04:44:11.665Z,0.80
2023-01-04T04:46:38.830Z,2.13
2023-01-04T04:49:06.643Z,1.00
2023-01-04T04:51:33.739Z,0.80
2023-01-04T04:54:00.588Z,3.47
2023-01-04T04:56:27.381Z,0.80
2023-01-04T04:58:54.131Z,1.13
2023-01-04T05:01:21.047Z,2.03
2023-01-04T05:03:47.916Z,1.00
2023-01-04T05:06:15.029Z,2.47
2023-01-04T05:08:41.782Z,1.30
2023-01-04T05:11:10.523Z,1.40
2023-01-04T05:13:37.427Z,1.20
2023-01-04T05:16:05.826Z,2.40
2023-01-04T05:18:32.955Z,1.03
2023-01-04T05:21:00.391Z,1.20
2023-01-04T05:23:27.349Z,1.10
2023-01-04T05:25:58.634Z,1.10
2023-01-04T05:28:25.885Z,0.90
2023-01-04T05:30:55.607Z,2.67
2023-01-04T05:33:32.731Z,1.10
2023-01-04T05:36:01.921Z,1.73
2023-01-04T05:38:28.842Z,0.90
2023-01-04T05:40:56.182Z,0.80
2023-01-04T05:43:24.433Z,1.87
2023-01-04T05:45:53.850Z,1.10
2023-01-04T05:48:21.640Z,1.10
2023-01-04T05:50:48.627Z,2.30
2023-01-04T05:53:18.308Z,0.80
2023-01-04T05:55:47.530Z,0.77
2023-01-04T05:58:14.451Z,3.27
2023-01-04T06:00:41.566Z,2.33
2023-01-04T06:03:08.635Z,2.10
2023-01-04T06:05:35.468Z,0.90
2023-01-04T06:08:02.250Z,3.50
2023-01-04T06:10:29.619Z,1.77
2023-01-04T06:12:56.386Z,1.37
2023-01-04T06:15:23.221Z,0.80
2023-01-04T06:17:50.003Z,1.20
2023-01-04T06:20:16.873Z,1.17
2023-01-04T06:22:43.682Z,2.40
2023-01-04T06:25:10.686Z,1.23
2023-01-04T06:27:37.581Z,0.80
2023-01-04T06:30:05.381Z,0.80
2023-01-04T06:32:32.250Z,0.80
2023-01-04T06:34:59.151Z,0.70
2023-01-04T06:37:25.946Z,0.90
2023-01-04T06:39:53.140Z,1.20
2023-01-04T06:42:38.543Z,1.20
2023-01-04T06:45:05.936Z,0.97
2023-01-04T06:47:32.750Z,0.83
2023-01-04T06:50:02.629Z,1.57
2023-01-04T06:52:29.373Z,0.70
2023-01-04T06:54:56.079Z,0.80
2023-01-04T06:57:23.117Z,0.80
2023-01-04T06:59:49.929Z,1.73
2023-01-04T07:02:17.274Z,1.00
2023-01-04T07:04:44.345Z,0.70
2023-01-04T07:07:11.592Z,1.73
2023-01-04T07:09:38.666Z,1.90
2023-01-04T07:12:06.008Z,2.17
2023-01-04T07:14:32.834Z,0.80
2023-01-04T07:16:59.583Z,0.87
2023-01-04T07:19:26.337Z,0.80
2023-01-04T07:21:54.016Z,0.97
2023-01-04T07:24:24.686Z,1.73
2023-01-04T07:26:56.924Z,2.20
2023-01-04T07:29:23.711Z,1.13
2023-01-04T07:31:52.227Z,1.20
2023-01-04T07:34:20.630Z,0.80
2023-01-04T07:36:48.117Z,0.90
2023-01-04T07:39:16.039Z,0.90
2023-01-04T07:41:42.899Z,2.13
2023-01-04T07:44:10.193Z,1.73
2023-01-04T07:46:37.968Z,4.20
2023-01-04T07:49:07.318Z,1.10
2023-01-04T07:51:37.037Z,1.00
2023-01-04T07:54:03.851Z,0.77
2023-01-04T07:56:30.571Z,1.97
2023-01-04T07:58:59.277Z,0.90
2023-01-04T08:01:27.471Z,1.93
2023-01-04T08:03:54.490Z,3.90
2023-01-04T08:06:21.839Z,1.00
2023-01-04T08:08:48.853Z,1.83
2023-01-04T08:11:18.659Z,1.00
2023-01-04T08:13:45.830Z,2.00
2023-01-04T08:16:25.099Z,0.80
2023-01-04T08:18:56.618Z,0.90
2023-01-04T08:21:24.225Z,0.97
2023-01-04T08:23:52.259Z,2.07
2023-01-04T08:26:21.565Z,1.43
2023-01-04T08:28:49.890Z,1.97
2023-01-04T08:31:19.468Z,0.90
2023-01-04T08:33:46.822Z,1.77
2023-01-04T08:36:27.720Z,1.13
2023-01-04T08:44:13.655Z,2.50
2023-01-04T08:46:40.407Z,0.97
2023-01-04T08:49:07.323Z,1.33
2023-01-04T08:51:34.204Z,2.20
2023-01-04T08:54:01.094Z,1.40
2023-01-04T08:56:27.804Z,3.13
2023-01-04T08:58:54.732Z,4.70
2023-01-04T09:01:21.646Z,2.83
2023-01-04T09:03:48.586Z,0.90
2023-01-04T09:06:16.746Z,2.10
2023-01-04T09:08:44.614Z,2.37
2023-01-04T09:11:17.519Z,0.87
2023-01-04T09:13:45.397Z,1.57
2023-01-04T09:16:15.427Z,2.10
2023-01-04T09:18:42.538Z,2.83
2023-01-04T09:21:15.015Z,0.80
2023-01-04T09:23:42.924Z,1.60
2023-01-04T09:26:12.952Z,5.23
2023-01-04T09:28:41.185Z,9.03
2023-01-04T09:31:17.268Z,1.97
2023-01-04T09:34:13.598Z,1.77
2023-01-04T09:36:31.960Z,3.90
2023-01-04T09:41:34.672Z,1.10
2023-01-04T09:44:04.963Z,0.83
2023-01-04T09:46:50.441Z,2.80
2023-01-04T09:49:38.752Z,0.80
2023-01-04T09:52:19.883Z,1.10
2023-01-04T09:54:49.302Z,2.30
2023-01-04T09:57:32.866Z,2.50
2023-01-04T10:00:08.825Z,2.57
2023-01-04T10:03:00.560Z,1.43
2023-01-04T10:05:31.587Z,2.97
2023-01-04T10:07:58.598Z,2.33
2023-01-04T10:10:43.982Z,0.97
2023-01-04T10:13:26.638Z,1.53
2023-01-04T10:16:02.871Z,0.90
2023-01-04T10:21:51.455Z,2.80
2023-01-04T10:24:34.219Z,2.70
2023-01-04T10:27:27.144Z,1.43
2023-01-04T10:30:00.026Z,2.30
2023-01-04T10:32:36.094Z,2.60
2023-01-04T10:35:19.747Z,5.03
2023-01-04T10:37:50.754Z,2.03
2023-01-04T10:40:18.791Z,3.63
2023-01-04T10:43:04.564Z,1.20
2023-01-04T10:45:41.625Z,2.43
2023-01-04T10:48:17.338Z,3.20
2023-01-04T10:51:09.294Z,1.27
2023-01-04T10:53:46.759Z,1.53
2023-01-04T10:56:34.772Z,1.37
2023-01-04T10:59:15.454Z,2.80
2023-01-04T11:01:47.735Z,1.33
2023-01-04T11:04:41.165Z,3.70
2023-01-04T11:07:22.142Z,3.70
2023-01-04T11:09:53.426Z,1.93
2023-01-04T11:12:22.763Z,1.00
2023-01-04T11:14:51.217Z,1.00
2023-01-04T11:17:18.580Z,1.47
2023-01-04T11:19:45.444Z,1.33
2023-01-04T11:22:16.326Z,2.60
2023-01-04T11:25:07.627Z,3.10
2023-01-04T11:27:43.878Z,4.17
2023-01-04T11:30:21.802Z,1.00
2023-01-04T11:33:09.913Z,1.30
2023-01-04T11:35:43.495Z,1.00
2023-01-04T11:38:11.901Z,1.07
2023-01-04T11:40:38.717Z,1.60
2023-01-04T11:43:18.528Z,1.93
2023-01-04T11:46:08.131Z,7.03
2023-01-04T11:48:43.734Z,1.20
2023-01-04T11:51:33.832Z,0.90
2023-01-04T11:54:14.189Z,1.97
2023-01-04T11:56:58.309Z,2.33
2023-01-04T11:59:25.901Z,1.10
2023-01-04T12:02:11.463Z,1.63
2023-01-04T12:04:38.464Z,6.13
2023-01-04T12:07:17.471Z,3.40
2023-01-04T12:09:44.209Z,2.50
2023-01-04T12:12:15.981Z,1.13
2023-01-04T12:14:48.560Z,1.73
2023-01-04T12:17:23.524Z,4.00
2023-01-04T12:19:55.813Z,1.67
2023-01-04T12:22:35.009Z,1.23
2023-01-04T12:25:02.825Z,1.47
2023-01-04T12:27:29.806Z,1.00
2023-01-04T12:30:00.650Z,1.00
2023-01-04T12:32:27.343Z,1.57
2023-01-04T12:34:55.034Z,0.90
2023-01-04T12:37:49.645Z,2.70
2023-01-04T12:40:47.888Z,0.87
2023-01-04T12:43:23.110Z,1.10
2023-01-04T12:46:47.019Z,2.57
2023-01-04T12:49:29.060Z,1.23
2023-01-04T12:55:00.710Z,1.33
2023-01-04T12:57:38.436Z,2.47
2023-01-04T13:00:15.407Z,4.03
2023-01-04T13:02:47.814Z,1.10
2023-01-04T13:08:10.567Z,1.07
2023-01-04T13:10:42.243Z,0.80
2023-01-04T13:13:36.858Z,1.20
2023-01-04T13:16:19.253Z,0.97
2023-01-04T13:18:51.264Z,1.40
2023-01-04T13:21:20.825Z,0.87
2023-01-04T13:23:56.354Z,4.70
2023-01-04T13:26:37.354Z,2.10
2023-01-04T13:29:22.328Z,29.37
2023-01-04T13:32:46.990Z,2.10
2023-01-04T13:35:19.577Z,3.83
2023-01-04T13:37:48.284Z,2.63
2023-01-04T13:40:29.517Z,4.17
2023-01-04T13:43:21.872Z,2.60
2023-01-04T13:46:06.995Z,2.80
2023-01-04T13:48:38.746Z,1.40
2023-01-04T13:51:15.667Z,1.77
2023-01-04T13:53:42.642Z,3.20
2023-01-04T13:56:21.568Z,3.40
2023-01-04T13:58:48.432Z,2.30
2023-01-04T14:01:19.349Z,2.03
2023-01-04T14:03:56.274Z,1.00
2023-01-04T14:06:25.230Z,1.00
2023-01-04T14:08:54.336Z,1.87
2023-01-04T14:11:50.316Z,4.13
2023-01-04T14:14:38.032Z,3.97
2023-01-04T14:17:15.836Z,2.13
2023-01-04T14:19:53.819Z,3.07
2023-01-04T14:22:23.605Z,1.00
2023-01-04T14:25:09.473Z,1.20
2023-01-04T14:27:45.003Z,1.87
2023-01-04T14:30:17.702Z,1.43
2023-01-04T14:33:17.334Z,1.43
2023-01-04T14:35:47.857Z,1.20
2023-01-04T14:38:18.957Z,2.23
2023-01-04T14:40:46.457Z,1.73
2023-01-04T14:43:49.425Z,2.73
2023-01-04T14:46:16.585Z,2.10
2023-01-04T14:48:43.378Z,1.00
2023-01-04T14:51:16.113Z,2.30
2023-01-04T14:53:42.857Z,17.27
2023-01-04T14:56:17.870Z,1.97
2023-01-04T14:58:45.726Z,3.00
2023-01-04T15:01:13.245Z,2.07
2023-01-04T15:03:40.227Z,1.40
2023-01-04T15:06:07.742Z,1.77
2023-01-04T15:08:35.065Z,2.30
2023-01-04T15:11:02.540Z,4.13
2023-01-04T15:13:36.744Z,2.23
2023-01-04T15:16:06.573Z,2.10
2023-01-04T15:18:33.354Z,4.90
2023-01-04T15:21:00.103Z,1.83
2023-01-04T15:23:26.889Z,3.00
2023-01-04T15:25:53.682Z,4.30
2023-01-04T15:28:22.063Z,1.73
2023-01-04T15:30:48.794Z,4.90
2023-01-04T15:33:15.808Z,1.60
2023-01-04T15:35:42.575Z,7.47
2023-01-04T15:38:14.425Z,3.93
2023-01-04T15:40:44.641Z,3.50
2023-01-04T15:43:11.822Z,7.03
2023-01-04T15:45:39.870Z,3.40
2023-01-04T15:48:09.545Z,1.23
2023-01-04T15:50:38.706Z,4.13
2023-01-04T15:53:07.034Z,10.30
2023-01-04T15:55:36.747Z,6.10
2023-01-04T15:58:04.731Z,4.60
2023-01-04T16:00:32.851Z,1.87
2023-01-04T16:02:59.849Z,1.70
2023-01-04T16:05:26.729Z,36.07
2023-01-04T16:07:53.620Z,4.03
2023-01-04T16:10:20.533Z,3.23
2023-01-04T16:12:52.977Z,2.40
2023-01-04T16:15:23.323Z,2.30
2023-01-04T16:17:50.130Z,2.20
2023-01-04T16:20:18.852Z,1.83
2023-01-04T16:22:45.813Z,4.37
2023-01-04T16:25:13.175Z,5.10
2023-01-04T16:27:40.350Z,3.93
2023-01-04T16:30:11.137Z,3.00
2023-01-04T16:32:42.289Z,5.57
2023-01-04T16:35:10.344Z,3.47
2023-01-04T16:37:37.602Z,3.43
2023-01-04T16:40:06.767Z,5.97
2023-01-04T16:42:35.369Z,6.47
2023-01-04T16:45:02.160Z,6.00
2023-01-04T16:47:28.926Z,5.50
2023-01-04T16:49:55.873Z,8.07
2023-01-04T16:52:26.722Z,9.67
2023-01-04T16:54:53.538Z,15.40
2023-01-04T16:57:20.306Z,6.50
2023-01-04T16:59:47.726Z,4.03
2023-01-04T17:02:14.803Z,2.00
2023-01-04T17:04:41.740Z,6.70
2023-01-04T17:07:08.846Z,8.83
2023-01-04T17:09:35.630Z,18.17
2023-01-04T17:12:45.129Z,5.23
2023-01-04T17:15:07.956Z,12.83
2023-01-04T17:17:37.875Z,20.53
2023-01-04T17:20:06.447Z,21.23
2023-01-04T17:22:34.914Z,10.83
2023-01-04T17:25:02.082Z,15.07
2023-01-04T17:27:28.832Z,5.93
2023-01-04T17:29:55.590Z,21.07
2023-01-04T17:32:22.397Z,11.37
2023-01-04T17:34:50.172Z,9.07
2023-01-04T17:37:16.902Z,5.97
2023-01-04T17:39:43.791Z,11.93
2023-01-04T17:42:10.537Z,9.93
2023-01-04T17:44:37.356Z,10.80
2023-01-04T17:47:04.112Z,7.60
2023-01-04T17:49:32.417Z,19.00
2023-01-04T17:51:59.736Z,14.27
2023-01-04T17:54:27.101Z,16.93
2023-01-04T17:56:54.072Z,18.27
2023-01-04T17:59:20.926Z,20.60
2023-01-04T18:01:47.865Z,23.87
2023-01-04T18:04:14.809Z,19.90
2023-01-04T18:06:41.545Z,13.13
2023-01-04T18:09:09.308Z,18.20
2023-01-04T18:11:37.627Z,25.23
2023-01-04T18:14:09.599Z,18.40
2023-01-04T18:16:56.930Z,17.90
2023-01-04T18:19:29.439Z,19.63
2023-01-04T18:21:56.751Z,30.10
2023-01-04T18:24:39.593Z,35.73
2023-01-04T18:27:29.040Z,25.13
2023-01-04T18:29:56.642Z,21.70
2023-01-04T18:32:25.604Z,39.03
2023-01-04T18:34:52.557Z,12.03
2023-01-04T18:37:19.619Z,36.87
2023-01-04T18:39:47.643Z,16.83
2023-01-04T18:42:14.575Z,18.50
2023-01-04T18:44:47.943Z,29.70
2023-01-04T18:47:17.445Z,26.40
2023-01-04T18:49:44.274Z,14.20
2023-01-04T18:52:11.334Z,18.10
2023-01-04T18:54:38.117Z,26.07
2023-01-04T18:57:05.302Z,44.80
2023-01-04T18:59:32.855Z,39.97
2023-01-04T19:02:03.517Z,34.07
2023-01-04T19:04:32.443Z,32.30
2023-01-04T19:06:59.994Z,25.70
2023-01-04T19:09:27.013Z,24.03
2023-01-04T19:11:53.894Z,26.63
2023-01-04T19:14:20.730Z,25.13
2023-01-04T19:16:47.569Z,17.63
2023-01-04T19:19:14.569Z,27.67
2023-01-04T19:21:41.392Z,23.23
2023-01-04T19:24:08.265Z,35.40
2023-01-04T19:26:34.963Z,33.40
2023-01-04T19:29:01.759Z,43.30
2023-01-04T19:31:28.492Z,27.93
2023-01-04T19:33:55.343Z,36.10
2023-01-04T19:36:22.390Z,29.70
2023-01-04T19:41:33.547Z,30.27
2023-01-04T19:44:09.210Z,31.83
2023-01-04T19:46:38.487Z,38.90
2023-01-04T19:49:10.906Z,30.60
2023-01-04T19:51:44.122Z,28.73
2023-01-04T19:54:11.627Z,17.73
2023-01-04T19:56:38.348Z,24.50
2023-01-04T19:59:06.760Z,23.87
2023-01-04T20:01:33.698Z,30.20
2023-01-04T20:04:00.499Z,32.30
2023-01-04T20:06:27.357Z,21.27
2023-01-04T20:08:54.131Z,34.77
2023-01-04T20:11:20.925Z,23.30
2023-01-04T20:13:47.645Z,31.60
2023-01-04T20:16:14.463Z,25.27
2023-01-04T20:18:41.251Z,17.90
2023-01-04T20:21:13.702Z,28.67
2023-01-04T20:23:40.558Z,25.80
2023-01-04T20:26:11.945Z,34.33
2023-01-04T20:28:39.190Z,24.90
2023-01-04T20:31:08.452Z,24.20
2023-01-04T20:33:35.602Z,25.07
2023-01-04T20:36:08.377Z,16.80
2023-01-04T20:38:40.567Z,20.40
2023-01-04T20:41:08.451Z,33.30
2023-01-04T20:43:36.318Z,27.80
2023-01-04T20:46:05.644Z,15.83
2023-01-04T20:48:32.428Z,28.90
2023-01-04T20:50:59.161Z,16.20
2023-01-04T20:53:25.963Z,21.30
2023-01-04T20:55:52.723Z,19.63
2023-01-04T20:58:19.504Z,21.17
2023-01-04T21:00:47.794Z,30.97
2023-01-04T21:03:15.437Z,26.80
2023-01-04T21:05:44.451Z,25.30
2023-01-04T21:08:12.969Z,18.13
2023-01-04T21:10:42.070Z,31.70
2023-01-04T21:13:10.213Z,27.53
2023-01-04T21:15:38.494Z,43.10
2023-01-04T21:18:06.448Z,25.00
2023-01-04T21:20:33.833Z,27.00
2023-01-04T21:23:00.619Z,16.50
2023-01-04T21:25:27.576Z,24.57
2023-01-04T21:27:54.471Z,22.13
2023-01-04T21:30:21.922Z,29.00
2023-01-04T21:32:48.841Z,23.63
2023-01-04T21:35:16.126Z,18.43
2023-01-04T21:37:43.023Z,23.20
2023-01-04T21:40:10.251Z,20.83
2023-01-04T21:42:36.977Z,20.73
2023-01-04T21:45:04.699Z,21.83
2023-01-04T21:47:31.881Z,22.43
2023-01-04T21:49:58.760Z,32.17
2023-01-04T21:52:26.317Z,15.80
2023-01-04T21:54:53.210Z,22.10
2023-01-04T21:57:20.105Z,22.07
2023-01-04T21:59:47.199Z,26.13
2023-01-04T22:02:19.015Z,23.60
2023-01-04T22:04:46.290Z,19.93
2023-01-04T22:07:13.294Z,23.70
2023-01-04T22:09:40.429Z,31.03
2023-01-04T22:12:07.632Z,16.77
2023-01-04T22:14:35.270Z,35.33
2023-01-04T22:17:02.028Z,21.23
2023-01-04T22:19:29.000Z,26.30
2023-01-04T22:21:55.799Z,13.43
2023-01-04T22:24:22.894Z,16.60
2023-01-04T22:26:50.793Z,22.30
2023-01-04T22:29:18.733Z,26.80
2023-01-04T22:31:45.693Z,19.80
2023-01-04T22:34:13.603Z,18.43
2023-01-04T22:36:40.390Z,23.60
2023-01-04T22:39:07.501Z,28.90
2023-01-04T22:41:34.296Z,22.87
2023-01-04T22:44:03.985Z,24.37
2023-01-04T22:46:32.524Z,34.93
2023-01-04T22:49:00.329Z,30.97
2023-01-04T22:51:29.208Z,23.73
2023-01-04T22:53:57.708Z,29.77
2023-01-04T22:56:25.436Z,23.97
2023-01-04T22:58:55.147Z,20.40
2023-01-04T23:01:24.200Z,19.83
2023-01-04T23:03:52.106Z,25.60
2023-01-04T23:06:19.574Z,25.40
2023-01-04T23:08:46.445Z,25.00
2023-01-04T23:11:16.423Z,28.60
2023-01-04T23:13:43.528Z,30.10
2023-01-04T23:16:13.680Z,26.23
2023-01-04T23:18:41.191Z,24.20
2023-01-04T23:21:08.194Z,26.93
2023-01-04T23:23:34.937Z,28.50
2023-01-04T23:26:07.039Z,19.50
2023-01-04T23:28:37.118Z,15.90
2023-01-04T23:31:10.626Z,21.13
2023-01-04T23:33:37.644Z,30.27
2023-01-04T23:36:14.781Z,18.80
2023-01-04T23:38:42.875Z,25.50
2023-01-04T23:41:11.561Z,28.20
2023-01-04T23:43:39.105Z,24.17
2023-01-04T23:46:08.039Z,17.30
2023-01-04T23:48:34.828Z,26.63
2023-01-04T23:51:01.599Z,25.73
2023-01-04T23:53:28.383Z,29.17
2023-01-04T23:56:00.948Z,20.83
2023-01-04T23:58:28.544Z,16.57
